sensor_id;sensor_type;location;lat;lon;timestamp;P1;durP1;ratioP1;P2;durP2;ratioP2
34296;SDS011;20564;42.902;25.336;2023-08-06T00:00:57;3.30;;;1.25;;
34296;SDS011;20564;42.902;25.336;2023-08-06T00:03:24;3.38;;;1.42;;
34296;SDS011;20564;42.902;25.336;2023-08-06T00:05:51;2.72;;;1.20;;
34296;SDS011;20564;42.902;25.336;2023-08-06T00:08:21;2.63;;;1.10;;
34296;SDS011;20564;42.902;25.336;2023-08-06T00:10:48;4.10;;;0.98;;
34296;SDS011;20564;42.902;25.336;2023-08-06T00:15:42;2.53;;;1.08;;
34296;SDS011;20564;42.902;25.336;2023-08-06T00:18:09;2.30;;;0.95;;
34296;SDS011;20564;42.902;25.336;2023-08-06T00:20:38;1.77;;;0.80;;
34296;SDS011;20564;42.902;25.336;2023-08-06T00:23:06;3.22;;;1.10;;
34296;SDS011;20564;42.902;25.336;2023-08-06T00:25:34;3.63;;;1.20;;
34296;SDS011;20564;42.902;25.336;2023-08-06T00:28:01;3.40;;;1.20;;
34296;SDS011;20564;42.902;25.336;2023-08-06T00:30:29;3.33;;;1.42;;
34296;SDS011;20564;42.902;25.336;2023-08-06T00:32:56;3.13;;;1.17;;
34296;SDS011;20564;42.902;25.336;2023-08-06T00:35:23;4.70;;;1.20;;
34296;SDS011;20564;42.902;25.336;2023-08-06T00:37:50;3.05;;;1.30;;
34296;SDS011;20564;42.902;25.336;2023-08-06T00:40:19;4.47;;;0.93;;
34296;SDS011;20564;42.902;25.336;2023-08-06T00:42:48;3.30;;;1.50;;
34296;SDS011;20564;42.902;25.336;2023-08-06T00:45:15;2.40;;;1.00;;
34296;SDS011;20564;42.902;25.336;2023-08-06T00:47:42;3.30;;;0.95;;
34296;SDS011;20564;42.902;25.336;2023-08-06T00:50:10;2.95;;;1.10;;
34296;SDS011;20564;42.902;25.336;2023-08-06T00:52:37;2.35;;;0.98;;
34296;SDS011;20564;42.902;25.336;2023-08-06T00:55:04;3.47;;;0.90;;
34296;SDS011;20564;42.902;25.336;2023-08-06T00:57:32;4.55;;;1.25;;
34296;SDS011;20564;42.902;25.336;2023-08-06T00:59:59;3.30;;;1.27;;
34296;SDS011;20564;42.902;25.336;2023-08-06T01:02:26;3.13;;;1.00;;
34296;SDS011;20564;42.902;25.336;2023-08-06T01:04:53;3.40;;;1.10;;
34296;SDS011;20564;42.902;25.336;2023-08-06T01:13:28;2.95;;;0.90;;
34296;SDS011;20564;42.902;25.336;2023-08-06T01:15:58;4.25;;;0.98;;
34296;SDS011;20564;42.902;25.336;2023-08-06T01:20:53;1.85;;;1.08;;
34296;SDS011;20564;42.902;25.336;2023-08-06T01:23:20;3.70;;;1.00;;
34296;SDS011;20564;42.902;25.336;2023-08-06T01:26:08;1.90;;;0.93;;
34296;SDS011;20564;42.902;25.336;2023-08-06T01:31:51;2.92;;;1.00;;
34296;SDS011;20564;42.902;25.336;2023-08-06T01:34:21;2.17;;;0.80;;
34296;SDS011;20564;42.902;25.336;2023-08-06T01:36:50;2.67;;;1.10;;
34296;SDS011;20564;42.902;25.336;2023-08-06T01:39:18;3.33;;;0.90;;
34296;SDS011;20564;42.902;25.336;2023-08-06T01:41:48;4.35;;;1.40;;
34296;SDS011;20564;42.902;25.336;2023-08-06T01:44:16;2.15;;;0.80;;
34296;SDS011;20564;42.902;25.336;2023-08-06T01:46:43;2.45;;;0.82;;
34296;SDS011;20564;42.902;25.336;2023-08-06T01:49:10;1.95;;;0.73;;
34296;SDS011;20564;42.902;25.336;2023-08-06T01:51:37;2.22;;;0.80;;
34296;SDS011;20564;42.902;25.336;2023-08-06T01:54:04;3.17;;;1.08;;
34296;SDS011;20564;42.902;25.336;2023-08-06T01:56:31;1.77;;;0.77;;
34296;SDS011;20564;42.902;25.336;2023-08-06T01:58:58;2.85;;;0.95;;
34296;SDS011;20564;42.902;25.336;2023-08-06T02:01:27;2.17;;;1.00;;
34296;SDS011;20564;42.902;25.336;2023-08-06T02:03:54;2.50;;;0.90;;
34296;SDS011;20564;42.902;25.336;2023-08-06T02:06:21;3.43;;;0.90;;
34296;SDS011;20564;42.902;25.336;2023-08-06T02:08:48;2.97;;;1.07;;
34296;SDS011;20564;42.902;25.336;2023-08-06T02:11:15;3.90;;;0.93;;
34296;SDS011;20564;42.902;25.336;2023-08-06T02:13:42;3.30;;;1.10;;
34296;SDS011;20564;42.902;25.336;2023-08-06T02:16:09;1.92;;;0.90;;
34296;SDS011;20564;42.902;25.336;2023-08-06T02:18:36;2.58;;;0.77;;
34296;SDS011;20564;42.902;25.336;2023-08-06T02:21:03;2.55;;;0.98;;
34296;SDS011;20564;42.902;25.336;2023-08-06T02:23:30;2.65;;;0.82;;
34296;SDS011;20564;42.902;25.336;2023-08-06T02:26:00;3.00;;;1.13;;
34296;SDS011;20564;42.902;25.336;2023-08-06T02:28:29;2.80;;;1.05;;
34296;SDS011;20564;42.902;25.336;2023-08-06T02:30:57;2.58;;;0.85;;
34296;SDS011;20564;42.902;25.336;2023-08-06T02:33:25;2.10;;;0.68;;
34296;SDS011;20564;42.902;25.336;2023-08-06T02:35:58;2.08;;;0.90;;
34296;SDS011;20564;42.902;25.336;2023-08-06T02:38:26;1.77;;;0.73;;
34296;SDS011;20564;42.902;25.336;2023-08-06T02:43:21;1.50;;;0.60;;
34296;SDS011;20564;42.902;25.336;2023-08-06T02:45:48;2.58;;;0.80;;
34296;SDS011;20564;42.902;25.336;2023-08-06T02:48:15;1.95;;;0.70;;
34296;SDS011;20564;42.902;25.336;2023-08-06T02:50:44;2.65;;;0.88;;
34296;SDS011;20564;42.902;25.336;2023-08-06T02:53:11;1.20;;;0.70;;
34296;SDS011;20564;42.902;25.336;2023-08-06T02:55:38;3.00;;;0.90;;
34296;SDS011;20564;42.902;25.336;2023-08-06T02:58:14;3.00;;;0.77;;
34296;SDS011;20564;42.902;25.336;2023-08-06T03:00:43;2.90;;;1.02;;
34296;SDS011;20564;42.902;25.336;2023-08-06T03:03:11;2.63;;;0.80;;
34296;SDS011;20564;42.902;25.336;2023-08-06T03:05:38;2.95;;;1.10;;
34296;SDS011;20564;42.902;25.336;2023-08-06T03:08:05;2.15;;;0.88;;
34296;SDS011;20564;42.902;25.336;2023-08-06T03:10:32;2.60;;;0.60;;
34296;SDS011;20564;42.902;25.336;2023-08-06T03:12:59;2.30;;;1.00;;
34296;SDS011;20564;42.902;25.336;2023-08-06T03:15:26;1.23;;;0.60;;
34296;SDS011;20564;42.902;25.336;2023-08-06T03:17:55;2.60;;;0.70;;
34296;SDS011;20564;42.902;25.336;2023-08-06T03:20:22;2.78;;;0.80;;
34296;SDS011;20564;42.902;25.336;2023-08-06T03:22:49;2.55;;;0.98;;
34296;SDS011;20564;42.902;25.336;2023-08-06T03:25:16;2.03;;;0.93;;
34296;SDS011;20564;42.902;25.336;2023-08-06T03:27:44;3.30;;;0.80;;
34296;SDS011;20564;42.902;25.336;2023-08-06T03:30:11;2.30;;;0.82;;
34296;SDS011;20564;42.902;25.336;2023-08-06T03:32:38;3.87;;;0.90;;
34296;SDS011;20564;42.902;25.336;2023-08-06T03:35:06;2.75;;;0.80;;
34296;SDS011;20564;42.902;25.336;2023-08-06T03:37:33;10.10;;;1.17;;
34296;SDS011;20564;42.902;25.336;2023-08-06T03:40:00;6.73;;;2.20;;
34296;SDS011;20564;42.902;25.336;2023-08-06T03:42:26;5.85;;;1.08;;
34296;SDS011;20564;42.902;25.336;2023-08-06T03:44:54;4.45;;;0.85;;
34296;SDS011;20564;42.902;25.336;2023-08-06T03:47:21;3.40;;;0.80;;
34296;SDS011;20564;42.902;25.336;2023-08-06T03:49:47;3.72;;;1.05;;
34296;SDS011;20564;42.902;25.336;2023-08-06T03:52:16;3.75;;;0.90;;
34296;SDS011;20564;42.902;25.336;2023-08-06T03:54:42;2.17;;;0.83;;
34296;SDS011;20564;42.902;25.336;2023-08-06T03:57:09;3.22;;;1.10;;
34296;SDS011;20564;42.902;25.336;2023-08-06T03:59:36;1.90;;;0.60;;
34296;SDS011;20564;42.902;25.336;2023-08-06T04:02:03;2.20;;;0.77;;
34296;SDS011;20564;42.902;25.336;2023-08-06T04:04:30;7.97;;;1.23;;
34296;SDS011;20564;42.902;25.336;2023-08-06T04:06:57;2.38;;;0.73;;
34296;SDS011;20564;42.902;25.336;2023-08-06T04:09:23;5.70;;;1.87;;
34296;SDS011;20564;42.902;25.336;2023-08-06T04:11:50;3.83;;;0.83;;
34296;SDS011;20564;42.902;25.336;2023-08-06T04:14:18;2.20;;;0.82;;
34296;SDS011;20564;42.902;25.336;2023-08-06T04:16:45;3.08;;;0.88;;
34296;SDS011;20564;42.902;25.336;2023-08-06T04:19:11;3.47;;;0.93;;
34296;SDS011;20564;42.902;25.336;2023-08-06T04:21:38;2.10;;;1.00;;
34296;SDS011;20564;42.902;25.336;2023-08-06T04:24:05;1.20;;;0.60;;
34296;SDS011;20564;42.902;25.336;2023-08-06T04:26:32;1.60;;;0.73;;
34296;SDS011;20564;42.902;25.336;2023-08-06T04:28:59;1.50;;;0.73;;
34296;SDS011;20564;42.902;25.336;2023-08-06T04:31:26;10.38;;;1.23;;
34296;SDS011;20564;42.902;25.336;2023-08-06T04:33:53;2.70;;;0.70;;
34296;SDS011;20564;42.902;25.336;2023-08-06T04:36:20;2.10;;;0.73;;
34296;SDS011;20564;42.902;25.336;2023-08-06T04:38:47;1.65;;;0.75;;
34296;SDS011;20564;42.902;25.336;2023-08-06T04:41:14;1.90;;;0.70;;
34296;SDS011;20564;42.902;25.336;2023-08-06T04:43:41;4.05;;;1.30;;
34296;SDS011;20564;42.902;25.336;2023-08-06T04:46:07;3.93;;;0.90;;
34296;SDS011;20564;42.902;25.336;2023-08-06T04:48:34;3.13;;;0.88;;
34296;SDS011;20564;42.902;25.336;2023-08-06T04:51:01;2.83;;;0.77;;
34296;SDS011;20564;42.902;25.336;2023-08-06T04:53:28;2.90;;;0.88;;
34296;SDS011;20564;42.902;25.336;2023-08-06T04:55:55;3.00;;;0.93;;
34296;SDS011;20564;42.902;25.336;2023-08-06T04:58:22;2.70;;;1.10;;
34296;SDS011;20564;42.902;25.336;2023-08-06T05:00:49;1.70;;;0.82;;
34296;SDS011;20564;42.902;25.336;2023-08-06T05:03:16;2.05;;;0.85;;
34296;SDS011;20564;42.902;25.336;2023-08-06T05:05:43;5.47;;;1.25;;
34296;SDS011;20564;42.902;25.336;2023-08-06T05:08:13;3.72;;;0.82;;
34296;SDS011;20564;42.902;25.336;2023-08-06T05:10:43;4.25;;;1.10;;
34296;SDS011;20564;42.902;25.336;2023-08-06T05:13:11;2.67;;;1.17;;
34296;SDS011;20564;42.902;25.336;2023-08-06T05:15:38;4.03;;;1.30;;
34296;SDS011;20564;42.902;25.336;2023-08-06T05:18:09;4.47;;;1.20;;
34296;SDS011;20564;42.902;25.336;2023-08-06T05:20:36;3.55;;;1.10;;
34296;SDS011;20564;42.902;25.336;2023-08-06T05:23:04;3.25;;;1.20;;
34296;SDS011;20564;42.902;25.336;2023-08-06T05:25:31;2.97;;;1.08;;
34296;SDS011;20564;42.902;25.336;2023-08-06T05:27:58;2.17;;;0.75;;
34296;SDS011;20564;42.902;25.336;2023-08-06T05:30:26;3.35;;;1.00;;
34296;SDS011;20564;42.902;25.336;2023-08-06T05:32:53;3.08;;;0.85;;
34296;SDS011;20564;42.902;25.336;2023-08-06T05:35:20;2.58;;;1.17;;
34296;SDS011;20564;42.902;25.336;2023-08-06T05:37:47;4.45;;;1.20;;
34296;SDS011;20564;42.902;25.336;2023-08-06T05:40:14;1.58;;;0.80;;
34296;SDS011;20564;42.902;25.336;2023-08-06T05:42:41;2.53;;;0.90;;
34296;SDS011;20564;42.902;25.336;2023-08-06T05:45:08;2.75;;;0.82;;
34296;SDS011;20564;42.902;25.336;2023-08-06T05:47:36;3.38;;;0.80;;
34296;SDS011;20564;42.902;25.336;2023-08-06T05:50:03;1.88;;;0.75;;
34296;SDS011;20564;42.902;25.336;2023-08-06T05:52:30;1.98;;;0.60;;
34296;SDS011;20564;42.902;25.336;2023-08-06T05:54:57;2.10;;;0.70;;
34296;SDS011;20564;42.902;25.336;2023-08-06T05:57:24;2.42;;;0.93;;
34296;SDS011;20564;42.902;25.336;2023-08-06T05:59:51;3.67;;;0.90;;
34296;SDS011;20564;42.902;25.336;2023-08-06T06:02:18;2.03;;;0.70;;
34296;SDS011;20564;42.902;25.336;2023-08-06T06:04:45;1.70;;;0.70;;
34296;SDS011;20564;42.902;25.336;2023-08-06T06:07:12;3.38;;;1.13;;
34296;SDS011;20564;42.902;25.336;2023-08-06T06:09:39;3.47;;;0.95;;
34296;SDS011;20564;42.902;25.336;2023-08-06T06:12:06;5.18;;;1.40;;
34296;SDS011;20564;42.902;25.336;2023-08-06T06:14:33;4.13;;;0.82;;
34296;SDS011;20564;42.902;25.336;2023-08-06T06:16:59;2.55;;;1.00;;
34296;SDS011;20564;42.902;25.336;2023-08-06T06:19:27;1.02;;;0.50;;
34296;SDS011;20564;42.902;25.336;2023-08-06T06:21:54;3.85;;;0.80;;
34296;SDS011;20564;42.902;25.336;2023-08-06T06:24:24;2.13;;;0.60;;
34296;SDS011;20564;42.902;25.336;2023-08-06T06:26:51;1.90;;;0.70;;
34296;SDS011;20564;42.902;25.336;2023-08-06T06:29:18;1.23;;;0.63;;
34296;SDS011;20564;42.902;25.336;2023-08-06T06:31:45;4.30;;;1.52;;
34296;SDS011;20564;42.902;25.336;2023-08-06T06:34:12;1.80;;;0.60;;
34296;SDS011;20564;42.902;25.336;2023-08-06T06:36:39;2.47;;;1.00;;
34296;SDS011;20564;42.902;25.336;2023-08-06T06:41:33;3.22;;;1.17;;
34296;SDS011;20564;42.902;25.336;2023-08-06T06:43:59;2.90;;;1.00;;
34296;SDS011;20564;42.902;25.336;2023-08-06T06:46:26;2.88;;;0.70;;
34296;SDS011;20564;42.902;25.336;2023-08-06T06:48:53;1.95;;;0.60;;
34296;SDS011;20564;42.902;25.336;2023-08-06T06:51:20;2.00;;;0.60;;
34296;SDS011;20564;42.902;25.336;2023-08-06T06:53:47;3.55;;;1.10;;
34296;SDS011;20564;42.902;25.336;2023-08-06T06:58:41;1.80;;;0.77;;
34296;SDS011;20564;42.902;25.336;2023-08-06T07:01:08;1.77;;;0.90;;
34296;SDS011;20564;42.902;25.336;2023-08-06T07:03:38;0.98;;;0.55;;
34296;SDS011;20564;42.902;25.336;2023-08-06T07:06:05;2.05;;;0.90;;
34296;SDS011;20564;42.902;25.336;2023-08-06T07:08:33;2.65;;;1.08;;
34296;SDS011;20564;42.902;25.336;2023-08-06T07:11:01;4.30;;;1.42;;
34296;SDS011;20564;42.902;25.336;2023-08-06T07:13:33;1.55;;;0.63;;
34296;SDS011;20564;42.902;25.336;2023-08-06T07:16:00;1.50;;;0.70;;
34296;SDS011;20564;42.902;25.336;2023-08-06T07:18:28;1.92;;;0.80;;
34296;SDS011;20564;42.902;25.336;2023-08-06T07:20:55;3.33;;;0.70;;
34296;SDS011;20564;42.902;25.336;2023-08-06T07:23:23;2.60;;;0.82;;
34296;SDS011;20564;42.902;25.336;2023-08-06T07:25:51;1.40;;;0.52;;
34296;SDS011;20564;42.902;25.336;2023-08-06T07:28:18;2.75;;;1.10;;
34296;SDS011;20564;42.902;25.336;2023-08-06T07:30:45;4.57;;;1.30;;
34296;SDS011;20564;42.902;25.336;2023-08-06T07:33:12;3.92;;;1.30;;
34296;SDS011;20564;42.902;25.336;2023-08-06T07:35:39;3.80;;;0.95;;
34296;SDS011;20564;42.902;25.336;2023-08-06T07:38:06;3.00;;;1.20;;
34296;SDS011;20564;42.902;25.336;2023-08-06T07:40:35;4.07;;;1.00;;
34296;SDS011;20564;42.902;25.336;2023-08-06T07:43:03;4.82;;;1.13;;
34296;SDS011;20564;42.902;25.336;2023-08-06T07:45:34;3.88;;;1.30;;
34296;SDS011;20564;42.902;25.336;2023-08-06T07:48:02;3.85;;;1.27;;
34296;SDS011;20564;42.902;25.336;2023-08-06T07:50:30;4.80;;;1.50;;
34296;SDS011;20564;42.902;25.336;2023-08-06T07:52:58;3.50;;;1.02;;
34296;SDS011;20564;42.902;25.336;2023-08-06T07:55:25;3.22;;;1.10;;
34296;SDS011;20564;42.902;25.336;2023-08-06T07:57:52;2.90;;;1.23;;
34296;SDS011;20564;42.902;25.336;2023-08-06T08:00:20;4.13;;;1.27;;
34296;SDS011;20564;42.902;25.336;2023-08-06T08:02:47;3.85;;;1.38;;
34296;SDS011;20564;42.902;25.336;2023-08-06T08:05:15;4.20;;;1.27;;
34296;SDS011;20564;42.902;25.336;2023-08-06T08:07:42;3.20;;;1.25;;
34296;SDS011;20564;42.902;25.336;2023-08-06T08:21:28;2.90;;;1.08;;
34296;SDS011;20564;42.902;25.336;2023-08-06T08:23:55;3.08;;;1.05;;
34296;SDS011;20564;42.902;25.336;2023-08-06T08:26:22;3.17;;;0.95;;
34296;SDS011;20564;42.902;25.336;2023-08-06T08:28:49;4.47;;;1.38;;
34296;SDS011;20564;42.902;25.336;2023-08-06T08:31:17;2.78;;;1.13;;
34296;SDS011;20564;42.902;25.336;2023-08-06T08:33:44;5.25;;;2.03;;
34296;SDS011;20564;42.902;25.336;2023-08-06T08:36:11;2.33;;;0.93;;
34296;SDS011;20564;42.902;25.336;2023-08-06T08:38:38;4.68;;;1.48;;
34296;SDS011;20564;42.902;25.336;2023-08-06T08:41:05;2.15;;;0.85;;
34296;SDS011;20564;42.902;25.336;2023-08-06T08:43:33;4.85;;;1.45;;
34296;SDS011;20564;42.902;25.336;2023-08-06T08:46:00;3.33;;;1.38;;
34296;SDS011;20564;42.902;25.336;2023-08-06T08:48:29;4.22;;;1.70;;
34296;SDS011;20564;42.902;25.336;2023-08-06T08:50:56;3.67;;;1.38;;
34296;SDS011;20564;42.902;25.336;2023-08-06T08:53:24;4.75;;;1.42;;
34296;SDS011;20564;42.902;25.336;2023-08-06T08:55:52;5.22;;;1.60;;
34296;SDS011;20564;42.902;25.336;2023-08-06T08:58:20;3.78;;;1.77;;
34296;SDS011;20564;42.902;25.336;2023-08-06T09:00:46;5.60;;;1.88;;
34296;SDS011;20564;42.902;25.336;2023-08-06T09:03:17;4.22;;;1.55;;
34296;SDS011;20564;42.902;25.336;2023-08-06T09:05:44;4.60;;;1.75;;
34296;SDS011;20564;42.902;25.336;2023-08-06T09:08:12;4.15;;;1.50;;
34296;SDS011;20564;42.902;25.336;2023-08-06T09:10:44;4.05;;;1.60;;
34296;SDS011;20564;42.902;25.336;2023-08-06T09:13:15;5.22;;;1.80;;
34296;SDS011;20564;42.902;25.336;2023-08-06T09:18:11;3.45;;;1.38;;
34296;SDS011;20564;42.902;25.336;2023-08-06T09:20:38;3.72;;;1.67;;
34296;SDS011;20564;42.902;25.336;2023-08-06T09:25:39;3.90;;;1.67;;
34296;SDS011;20564;42.902;25.336;2023-08-06T09:28:12;4.22;;;1.80;;
34296;SDS011;20564;42.902;25.336;2023-08-06T09:30:38;6.70;;;2.08;;
34296;SDS011;20564;42.902;25.336;2023-08-06T09:33:09;5.03;;;1.60;;
34296;SDS011;20564;42.902;25.336;2023-08-06T09:35:40;5.95;;;2.35;;
34296;SDS011;20564;42.902;25.336;2023-08-06T09:38:08;7.28;;;2.10;;
34296;SDS011;20564;42.902;25.336;2023-08-06T09:40:38;4.47;;;1.85;;
34296;SDS011;20564;42.902;25.336;2023-08-06T09:43:07;6.22;;;2.40;;
34296;SDS011;20564;42.902;25.336;2023-08-06T09:45:35;6.97;;;2.53;;
34296;SDS011;20564;42.902;25.336;2023-08-06T09:48:04;6.28;;;2.13;;
34296;SDS011;20564;42.902;25.336;2023-08-06T09:50:35;5.88;;;2.20;;
34296;SDS011;20564;42.902;25.336;2023-08-06T09:53:04;6.55;;;2.00;;
34296;SDS011;20564;42.902;25.336;2023-08-06T09:55:32;6.35;;;2.33;;
34296;SDS011;20564;42.902;25.336;2023-08-06T09:58:00;7.05;;;2.60;;
34296;SDS011;20564;42.902;25.336;2023-08-06T10:02:55;4.93;;;2.05;;
34296;SDS011;20564;42.902;25.336;2023-08-06T10:05:26;6.40;;;2.55;;
34296;SDS011;20564;42.902;25.336;2023-08-06T10:07:53;6.85;;;2.40;;
34296;SDS011;20564;42.902;25.336;2023-08-06T10:10:22;5.40;;;2.10;;
34296;SDS011;20564;42.902;25.336;2023-08-06T10:12:52;3.63;;;2.03;;
34296;SDS011;20564;42.902;25.336;2023-08-06T10:15:24;5.65;;;2.17;;
34296;SDS011;20564;42.902;25.336;2023-08-06T10:17:56;5.78;;;2.25;;
34296;SDS011;20564;42.902;25.336;2023-08-06T10:20:25;4.57;;;1.98;;
34296;SDS011;20564;42.902;25.336;2023-08-06T10:23:00;6.82;;;2.47;;
34296;SDS011;20564;42.902;25.336;2023-08-06T10:25:33;5.47;;;2.15;;
34296;SDS011;20564;42.902;25.336;2023-08-06T10:28:10;8.82;;;2.38;;
34296;SDS011;20564;42.902;25.336;2023-08-06T10:30:44;6.20;;;1.85;;
34296;SDS011;20564;42.902;25.336;2023-08-06T10:33:13;8.30;;;2.10;;
34296;SDS011;20564;42.902;25.336;2023-08-06T10:38:13;3.15;;;1.08;;
34296;SDS011;20564;42.902;25.336;2023-08-06T10:40:43;5.22;;;1.20;;
34296;SDS011;20564;42.902;25.336;2023-08-06T10:43:26;4.32;;;1.35;;
34296;SDS011;20564;42.902;25.336;2023-08-06T10:45:55;2.40;;;1.00;;
34296;SDS011;20564;42.902;25.336;2023-08-06T10:48:39;4.63;;;1.20;;
34296;SDS011;20564;42.902;25.336;2023-08-06T10:51:08;2.90;;;1.00;;
34296;SDS011;20564;42.902;25.336;2023-08-06T10:53:37;2.17;;;0.93;;
34296;SDS011;20564;42.902;25.336;2023-08-06T10:56:15;2.92;;;1.05;;
34296;SDS011;20564;42.902;25.336;2023-08-06T10:58:47;3.72;;;1.15;;
34296;SDS011;20564;42.902;25.336;2023-08-06T11:01:15;3.53;;;1.20;;
34296;SDS011;20564;42.902;25.336;2023-08-06T11:03:43;2.92;;;1.10;;
34296;SDS011;20564;42.902;25.336;2023-08-06T11:06:20;3.05;;;1.27;;
34296;SDS011;20564;42.902;25.336;2023-08-06T11:08:51;3.78;;;1.30;;
34296;SDS011;20564;42.902;25.336;2023-08-06T11:11:20;4.00;;;1.25;;
34296;SDS011;20564;42.902;25.336;2023-08-06T11:13:49;5.53;;;1.70;;
34296;SDS011;20564;42.902;25.336;2023-08-06T11:16:18;4.53;;;1.38;;
34296;SDS011;20564;42.902;25.336;2023-08-06T11:18:46;5.43;;;1.80;;
34296;SDS011;20564;42.902;25.336;2023-08-06T11:21:14;2.88;;;1.15;;
34296;SDS011;20564;42.902;25.336;2023-08-06T11:23:41;3.42;;;1.02;;
34296;SDS011;20564;42.902;25.336;2023-08-06T11:26:08;3.15;;;1.40;;
34296;SDS011;20564;42.902;25.336;2023-08-06T11:28:35;4.25;;;1.55;;
34296;SDS011;20564;42.902;25.336;2023-08-06T11:31:02;3.83;;;1.53;;
34296;SDS011;20564;42.902;25.336;2023-08-06T11:33:30;16.40;;;2.60;;
34296;SDS011;20564;42.902;25.336;2023-08-06T11:35:58;5.88;;;1.77;;
34296;SDS011;20564;42.902;25.336;2023-08-06T11:38:29;4.00;;;1.52;;
34296;SDS011;20564;42.902;25.336;2023-08-06T11:40:57;2.67;;;1.35;;
34296;SDS011;20564;42.902;25.336;2023-08-06T11:43:24;5.78;;;1.90;;
34296;SDS011;20564;42.902;25.336;2023-08-06T11:45:51;4.97;;;2.10;;
34296;SDS011;20564;42.902;25.336;2023-08-06T11:48:20;3.33;;;1.63;;
34296;SDS011;20564;42.902;25.336;2023-08-06T11:50:47;4.10;;;1.70;;
34296;SDS011;20564;42.902;25.336;2023-08-06T11:53:14;5.13;;;1.63;;
34296;SDS011;20564;42.902;25.336;2023-08-06T11:55:41;3.35;;;1.33;;
34296;SDS011;20564;42.902;25.336;2023-08-06T11:58:10;4.60;;;1.45;;
34296;SDS011;20564;42.902;25.336;2023-08-06T12:00:38;4.57;;;1.52;;
34296;SDS011;20564;42.902;25.336;2023-08-06T12:03:05;3.17;;;1.33;;
34296;SDS011;20564;42.902;25.336;2023-08-06T12:05:32;3.67;;;1.73;;
34296;SDS011;20564;42.902;25.336;2023-08-06T12:10:28;7.18;;;1.83;;
34296;SDS011;20564;42.902;25.336;2023-08-06T12:12:57;4.38;;;1.35;;
34296;SDS011;20564;42.902;25.336;2023-08-06T12:15:24;4.60;;;1.30;;
34296;SDS011;20564;42.902;25.336;2023-08-06T12:17:54;3.70;;;1.65;;
34296;SDS011;20564;42.902;25.336;2023-08-06T12:20:24;2.35;;;1.00;;
34296;SDS011;20564;42.902;25.336;2023-08-06T12:22:55;3.55;;;1.30;;
34296;SDS011;20564;42.902;25.336;2023-08-06T12:25:21;6.82;;;1.40;;
34296;SDS011;20564;42.902;25.336;2023-08-06T12:27:49;3.30;;;1.38;;
34296;SDS011;20564;42.902;25.336;2023-08-06T12:30:17;9.07;;;1.55;;
34296;SDS011;20564;42.902;25.336;2023-08-06T12:32:44;2.97;;;0.95;;
34296;SDS011;20564;42.902;25.336;2023-08-06T12:35:11;5.80;;;1.35;;
34296;SDS011;20564;42.902;25.336;2023-08-06T12:37:38;3.33;;;1.40;;
34296;SDS011;20564;42.902;25.336;2023-08-06T12:40:05;2.00;;;1.05;;
34296;SDS011;20564;42.902;25.336;2023-08-06T12:42:53;3.22;;;1.15;;
34296;SDS011;20564;42.902;25.336;2023-08-06T12:45:20;1.83;;;0.93;;
34296;SDS011;20564;42.902;25.336;2023-08-06T12:47:48;2.55;;;1.15;;
34296;SDS011;20564;42.902;25.336;2023-08-06T12:50:16;2.60;;;1.10;;
34296;SDS011;20564;42.902;25.336;2023-08-06T12:52:45;2.13;;;1.00;;
34296;SDS011;20564;42.902;25.336;2023-08-06T12:55:12;3.63;;;1.30;;
34296;SDS011;20564;42.902;25.336;2023-08-06T12:57:39;4.20;;;1.38;;
34296;SDS011;20564;42.902;25.336;2023-08-06T13:00:24;2.63;;;0.98;;
34296;SDS011;20564;42.902;25.336;2023-08-06T13:02:52;3.70;;;1.30;;
34296;SDS011;20564;42.902;25.336;2023-08-06T13:05:19;2.30;;;1.08;;
34296;SDS011;20564;42.902;25.336;2023-08-06T13:07:46;3.00;;;1.00;;
34296;SDS011;20564;42.902;25.336;2023-08-06T13:10:13;4.15;;;1.02;;
34296;SDS011;20564;42.902;25.336;2023-08-06T13:12:40;2.67;;;1.13;;
34296;SDS011;20564;42.902;25.336;2023-08-06T13:15:07;2.50;;;1.00;;
34296;SDS011;20564;42.902;25.336;2023-08-06T13:17:35;2.97;;;1.17;;
34296;SDS011;20564;42.902;25.336;2023-08-06T13:20:02;3.15;;;1.40;;
34296;SDS011;20564;42.902;25.336;2023-08-06T13:22:29;3.15;;;1.33;;
34296;SDS011;20564;42.902;25.336;2023-08-06T13:24:59;2.47;;;0.93;;
34296;SDS011;20564;42.902;25.336;2023-08-06T13:27:26;2.53;;;1.10;;
34296;SDS011;20564;42.902;25.336;2023-08-06T13:29:53;3.67;;;1.15;;
34296;SDS011;20564;42.902;25.336;2023-08-06T13:32:19;2.47;;;1.20;;
34296;SDS011;20564;42.902;25.336;2023-08-06T13:34:47;5.32;;;1.15;;
34296;SDS011;20564;42.902;25.336;2023-08-06T13:37:13;1.77;;;0.93;;
34296;SDS011;20564;42.902;25.336;2023-08-06T13:39:40;2.03;;;0.95;;
34296;SDS011;20564;42.902;25.336;2023-08-06T13:42:07;5.07;;;1.58;;
34296;SDS011;20564;42.902;25.336;2023-08-06T13:44:34;3.47;;;1.30;;
34296;SDS011;20564;42.902;25.336;2023-08-06T13:47:02;2.17;;;1.00;;
34296;SDS011;20564;42.902;25.336;2023-08-06T13:49:29;4.93;;;1.25;;
34296;SDS011;20564;42.902;25.336;2023-08-06T13:51:56;3.05;;;1.30;;
34296;SDS011;20564;42.902;25.336;2023-08-06T13:54:41;1.60;;;1.05;;
34296;SDS011;20564;42.902;25.336;2023-08-06T13:57:08;6.97;;;1.40;;
34296;SDS011;20564;42.902;25.336;2023-08-06T14:02:02;4.55;;;2.03;;
34296;SDS011;20564;42.902;25.336;2023-08-06T14:04:29;1.50;;;1.00;;
34296;SDS011;20564;42.902;25.336;2023-08-06T14:06:56;4.00;;;1.08;;
34296;SDS011;20564;42.902;25.336;2023-08-06T14:09:23;2.00;;;1.10;;
34296;SDS011;20564;42.902;25.336;2023-08-06T14:11:50;1.48;;;0.82;;
34296;SDS011;20564;42.902;25.336;2023-08-06T14:14:17;2.40;;;0.90;;
34296;SDS011;20564;42.902;25.336;2023-08-06T14:16:44;6.05;;;1.33;;
34296;SDS011;20564;42.902;25.336;2023-08-06T14:19:11;14.43;;;2.20;;
34296;SDS011;20564;42.902;25.336;2023-08-06T14:21:38;5.60;;;1.52;;
34296;SDS011;20564;42.902;25.336;2023-08-06T14:24:08;5.95;;;1.02;;
34296;SDS011;20564;42.902;25.336;2023-08-06T14:26:35;3.65;;;1.30;;
34296;SDS011;20564;42.902;25.336;2023-08-06T14:29:02;4.72;;;1.13;;
34296;SDS011;20564;42.902;25.336;2023-08-06T14:31:29;3.05;;;1.33;;
34296;SDS011;20564;42.902;25.336;2023-08-06T14:33:56;5.15;;;1.30;;
34296;SDS011;20564;42.902;25.336;2023-08-06T14:36:23;5.43;;;1.45;;
34296;SDS011;20564;42.902;25.336;2023-08-06T14:38:49;9.80;;;1.30;;
34296;SDS011;20564;42.902;25.336;2023-08-06T14:41:25;4.10;;;1.15;;
34296;SDS011;20564;42.902;25.336;2023-08-06T14:43:52;3.25;;;1.20;;
34296;SDS011;20564;42.902;25.336;2023-08-06T14:46:19;3.83;;;1.17;;
34296;SDS011;20564;42.902;25.336;2023-08-06T14:48:46;1.95;;;1.05;;
34296;SDS011;20564;42.902;25.336;2023-08-06T14:51:13;2.30;;;0.90;;
34296;SDS011;20564;42.902;25.336;2023-08-06T14:53:40;3.47;;;1.20;;
34296;SDS011;20564;42.902;25.336;2023-08-06T14:56:07;4.57;;;1.50;;
34296;SDS011;20564;42.902;25.336;2023-08-06T14:58:34;3.63;;;1.25;;
34296;SDS011;20564;42.902;25.336;2023-08-06T15:01:01;2.08;;;1.20;;
34296;SDS011;20564;42.902;25.336;2023-08-06T15:03:28;2.13;;;1.08;;
34296;SDS011;20564;42.902;25.336;2023-08-06T15:05:55;2.50;;;1.02;;
34296;SDS011;20564;42.902;25.336;2023-08-06T15:08:22;2.85;;;1.23;;
34296;SDS011;20564;42.902;25.336;2023-08-06T15:10:52;3.40;;;1.33;;
34296;SDS011;20564;42.902;25.336;2023-08-06T15:13:20;4.13;;;1.38;;
34296;SDS011;20564;42.902;25.336;2023-08-06T15:18:15;3.53;;;1.05;;
34296;SDS011;20564;42.902;25.336;2023-08-06T15:20:42;2.92;;;1.20;;
34296;SDS011;20564;42.902;25.336;2023-08-06T15:23:09;2.50;;;1.08;;
34296;SDS011;20564;42.902;25.336;2023-08-06T15:25:36;3.08;;;1.00;;
34296;SDS011;20564;42.902;25.336;2023-08-06T15:28:03;3.15;;;1.30;;